createdAt,value
2017-01-11T21:53:56.616Z,56
2017-01-11T21:54:13.316Z,52
2017-01-11T21:54:30.047Z,48
2017-01-11T21:54:46.748Z,48
2017-01-11T21:55:03.481Z,44
2017-01-11T21:55:20.194Z,44
2017-01-11T21:55:36.924Z,40
2017-01-11T21:55:53.631Z,40
2017-01-11T21:56:10.353Z,40
2017-01-11T21:56:27.047Z,36
2017-01-11T21:56:43.780Z,36
2017-01-11T21:57:00.740Z,32
2017-01-11T21:57:17.456Z,32
2017-01-11T21:57:36.190Z,28
2017-01-11T21:57:52.918Z,32
2017-01-11T21:58:09.643Z,28
2017-01-11T21:58:26.364Z,28
2017-01-11T21:58:43.663Z,28
2017-01-11T21:59:00.397Z,28
2017-01-11T21:59:17.104Z,24
2017-01-11T21:59:33.848Z,28
2017-01-11T21:59:50.550Z,24
2017-01-11T22:00:07.856Z,24
2017-01-11T22:00:24.585Z,20
2017-01-11T22:00:41.319Z,20
2017-01-11T22:00:58.069Z,20
2017-01-11T22:01:15.405Z,20
2017-01-11T22:01:32.122Z,20
2017-01-11T22:01:48.830Z,16
2017-01-11T22:02:05.549Z,16
2017-01-11T22:02:22.249Z,20
2017-01-11T22:02:38.993Z,16
2017-01-11T22:02:55.724Z,16
2017-01-11T22:03:12.451Z,12
2017-01-11T22:03:29.164Z,12
2017-01-11T22:03:45.914Z,16
2017-01-11T22:04:02.603Z,16
2017-01-11T22:04:19.335Z,12
2017-01-11T22:04:36.044Z,12
2017-01-11T22:04:52.745Z,12
2017-01-11T22:05:10.059Z,8
2017-01-11T22:05:27.377Z,8
2017-01-11T22:05:44.087Z,12
2017-01-11T22:06:00.817Z,12
2017-01-11T22:06:17.513Z,8
2017-01-11T22:06:34.198Z,8
2017-01-11T22:06:50.921Z,8
2017-01-11T22:07:07.632Z,8
2017-01-11T22:07:24.393Z,4
2017-01-11T22:07:41.128Z,4
2017-01-11T22:07:58.453Z,8
2017-01-11T22:08:15.172Z,8
2017-01-11T22:08:31.894Z,8
2017-01-11T22:08:48.646Z,8
2017-01-11T22:09:05.337Z,4
2017-01-11T22:09:22.043Z,4
2017-01-11T22:09:38.771Z,4
2017-01-11T22:09:55.490Z,4
2017-01-11T22:10:12.217Z,4
2017-01-11T22:10:28.936Z,4
2017-01-11T22:10:45.686Z,4
2017-01-11T22:11:02.404Z,0
2017-01-11T22:11:19.131Z,4
2017-01-11T22:11:36.461Z,4
2017-01-11T22:11:53.191Z,4
2017-01-11T22:12:09.872Z,4
2017-01-11T22:12:26.590Z,4
2017-01-11T22:12:43.276Z,4
2017-01-11T22:13:00.020Z,4
2017-01-11T22:13:16.724Z,4
2017-01-11T22:13:33.444Z,4
2017-01-11T22:13:50.143Z,4
2017-01-11T22:14:06.838Z,4
2017-01-11T22:14:23.575Z,4
2017-01-11T22:14:40.261Z,0
2017-01-11T22:14:56.978Z,0
2017-01-11T22:15:13.677Z,0
2017-01-11T22:15:30.399Z,0
2017-01-11T22:15:47.111Z,0
2017-01-11T22:16:03.807Z,0
2017-01-11T22:16:20.521Z,0
2017-01-11T22:16:37.278Z,0
2017-01-11T22:16:53.984Z,0
2017-01-11T22:17:10.702Z,0
2017-01-11T22:17:27.426Z,0
2017-01-11T22:17:44.132Z,0
2017-01-11T22:18:00.874Z,0
2017-01-11T22:18:17.608Z,0
2017-01-11T22:18:34.326Z,0
2017-01-11T22:18:51.036Z,0
2017-01-11T22:19:07.769Z,0
2017-01-11T22:19:24.521Z,0
2017-01-11T22:19:41.236Z,0
2017-01-11T22:19:57.968Z,0
2017-01-11T22:20:14.688Z,0
2017-01-11T22:20:31.447Z,0
2017-01-11T22:20:48.169Z,0
2017-01-11T22:21:04.924Z,0
2017-01-11T22:21:21.651Z,0
2017-01-11T22:21:38.379Z,0
2017-01-11T22:21:55.077Z,0
2017-01-11T22:22:11.790Z,0
2017-01-11T22:22:28.500Z,0
2017-01-11T22:22:45.241Z,0
2017-01-11T22:23:02.028Z,0
2017-01-11T22:23:18.765Z,0
2017-01-11T22:23:35.490Z,0
2017-01-11T22:23:52.201Z,0
2017-01-11T22:24:08.929Z,0
2017-01-11T22:24:25.649Z,0
2017-01-11T22:24:42.395Z,0
2017-01-11T22:24:59.115Z,0
2017-01-11T22:25:15.849Z,0
2017-01-11T22:25:32.602Z,0
2017-01-11T22:25:49.321Z,0
2017-01-11T22:26:06.019Z,0
2017-01-11T22:26:22.791Z,0
2017-01-11T22:26:39.523Z,0
2017-01-11T22:26:56.250Z,0
2017-01-11T22:27:12.960Z,0
2017-01-11T22:27:29.656Z,0
2017-01-11T22:27:46.361Z,0
2017-01-11T22:28:03.094Z,0
2017-01-11T22:28:19.802Z,0
2017-01-11T22:28:36.514Z,0
2017-01-11T22:28:53.255Z,0
2017-01-11T22:29:09.963Z,0
2017-01-11T22:29:26.682Z,0
2017-01-11T22:29:43.430Z,0
2017-01-11T22:30:00.162Z,0
2017-01-11T22:30:16.894Z,0
2017-01-11T22:30:33.629Z,0
2017-01-11T22:30:50.373Z,0
2017-01-11T22:31:07.059Z,0
2017-01-11T22:31:23.774Z,0
2017-01-11T22:31:40.477Z,0
2017-01-11T22:31:57.195Z,0
2017-01-11T22:32:13.931Z,0
2017-01-11T22:32:30.657Z,0
2017-01-11T22:32:47.416Z,0
2017-01-11T22:33:04.115Z,0
2017-01-11T22:33:21.042Z,0
2017-01-11T22:33:37.768Z,0
2017-01-11T22:33:54.471Z,0
2017-01-11T22:34:11.201Z,0
2017-01-11T22:34:27.916Z,0
2017-01-11T22:34:44.688Z,0
2017-01-11T22:35:01.415Z,0
2017-01-11T22:35:18.962Z,0
2017-01-11T22:35:35.694Z,0
2017-01-11T22:35:52.412Z,0
2017-01-11T22:36:09.133Z,0
2017-01-11T22:36:25.842Z,0
2017-01-11T22:36:42.546Z,0
2017-01-11T22:36:59.282Z,0
2017-01-11T22:37:15.975Z,0
2017-01-11T22:37:32.755Z,0
2017-01-11T22:37:49.463Z,0
2017-01-11T22:38:06.155Z,0
2017-01-11T22:38:22.908Z,0
2017-01-11T22:38:39.622Z,0
2017-01-11T22:38:56.920Z,0
2017-01-11T22:39:13.647Z,0
2017-01-11T22:39:30.984Z,0
2017-01-11T22:39:47.667Z,0
2017-01-11T22:40:04.386Z,0
2017-01-11T22:40:21.089Z,0
2017-01-11T22:40:37.816Z,0
2017-01-11T22:40:54.511Z,0
2017-01-11T22:41:11.224Z,0
2017-01-11T22:41:27.963Z,0
2017-01-11T22:41:45.370Z,0
2017-01-11T22:42:02.107Z,0
2017-01-11T22:42:18.831Z,0
2017-01-11T22:42:35.554Z,0
2017-01-11T22:42:52.247Z,0
2017-01-11T22:43:08.991Z,0
2017-01-11T22:43:25.763Z,0
2017-01-11T22:43:42.503Z,0
2017-01-11T22:43:59.233Z,0
2017-01-11T22:44:15.982Z,0
2017-01-11T22:44:32.701Z,0
2017-01-11T22:44:49.478Z,0
2017-01-11T22:45:06.172Z,0
2017-01-11T22:45:22.912Z,0
2017-01-11T22:45:39.641Z,0
2017-01-11T22:45:56.371Z,0
2017-01-11T22:46:13.687Z,0
2017-01-11T22:46:30.394Z,0
2017-01-11T22:46:47.189Z,0
2017-01-11T22:47:03.913Z,0
2017-01-11T22:47:20.624Z,0
2017-01-11T22:47:37.352Z,0
2017-01-11T22:47:54.052Z,0
2017-01-11T22:48:10.769Z,0
2017-01-11T22:48:27.460Z,0
2017-01-11T22:48:44.235Z,0
2017-01-11T22:49:00.934Z,0
2017-01-11T22:49:17.928Z,0
2017-01-11T22:49:34.658Z,0
2017-01-11T22:49:51.421Z,0
2017-01-11T22:50:08.347Z,0
2017-01-11T22:50:25.108Z,0
2017-01-11T22:50:41.817Z,0
2017-01-11T22:50:58.566Z,0
2017-01-11T22:51:15.435Z,0
2017-01-11T22:51:32.477Z,0
2017-01-11T22:51:49.217Z,0
2017-01-11T22:52:05.963Z,0
2017-01-11T22:52:22.821Z,0
2017-01-11T22:52:39.556Z,0
2017-01-11T22:52:56.268Z,0
2017-01-11T22:53:13.010Z,0
2017-01-11T22:53:29.729Z,0
2017-01-11T22:53:46.463Z,0
2017-01-11T22:54:03.207Z,0
2017-01-11T22:54:19.935Z,0
2017-01-11T22:54:36.647Z,0
2017-01-11T22:54:53.350Z,0
2017-01-11T22:55:10.137Z,0
2017-01-11T22:55:26.874Z,0
2017-01-11T22:55:43.605Z,0
2017-01-11T22:56:00.365Z,0
2017-01-11T22:56:17.087Z,0
2017-01-11T22:56:33.879Z,0
2017-01-11T22:56:50.608Z,0
2017-01-11T22:57:07.443Z,0
2017-01-11T22:57:24.164Z,0
2017-01-11T22:57:40.854Z,0
2017-01-11T22:57:57.654Z,0
2017-01-11T22:58:14.352Z,0
2017-01-11T22:58:31.064Z,0
2017-01-11T22:58:47.783Z,0
2017-01-11T22:59:04.501Z,0
2017-01-11T22:59:21.292Z,0
2017-01-11T22:59:38.015Z,0
2017-01-11T22:59:54.749Z,0
2017-01-11T23:00:11.468Z,0
2017-01-11T23:00:28.181Z,0
2017-01-11T23:00:44.923Z,0
2017-01-11T23:01:01.696Z,0
2017-01-11T23:01:18.434Z,0
2017-01-11T23:01:35.192Z,0
2017-01-11T23:01:51.973Z,0
2017-01-11T23:02:09.331Z,0
2017-01-11T23:02:26.041Z,0
2017-01-11T23:02:42.811Z,0
2017-01-11T23:02:59.505Z,0
2017-01-11T23:03:16.224Z,0
2017-01-11T23:03:32.904Z,0
2017-01-11T23:03:49.637Z,0
2017-01-11T23:04:06.345Z,0
2017-01-11T23:04:23.069Z,0
2017-01-11T23:04:39.805Z,0
2017-01-11T23:04:56.531Z,0
2017-01-11T23:05:13.213Z,0
2017-01-11T23:05:29.938Z,0
2017-01-11T23:05:46.638Z,0
2017-01-11T23:06:03.327Z,0
2017-01-11T23:06:20.030Z,0
2017-01-11T23:06:36.724Z,0
2017-01-11T23:06:53.433Z,0
2017-01-11T23:07:10.134Z,0
2017-01-11T23:07:26.826Z,0
2017-01-11T23:07:43.558Z,0
2017-01-11T23:08:00.287Z,0
2017-01-11T23:08:17.021Z,0
2017-01-11T23:08:33.748Z,0
2017-01-11T23:08:50.435Z,0
2017-01-11T23:09:07.138Z,0
2017-01-11T23:09:23.834Z,0
2017-01-11T23:09:40.535Z,0
2017-01-11T23:09:57.254Z,0
2017-01-11T23:10:13.958Z,0
2017-01-11T23:10:30.664Z,0
2017-01-11T23:10:47.968Z,0
2017-01-11T23:11:04.664Z,0
2017-01-11T23:11:22.001Z,0
2017-01-11T23:11:38.712Z,0
2017-01-11T23:11:55.436Z,0
2017-01-11T23:12:12.482Z,0
2017-01-11T23:12:29.187Z,0
2017-01-11T23:12:45.875Z,0
2017-01-11T23:13:02.583Z,0
2017-01-11T23:13:19.298Z,0
2017-01-11T23:13:36.000Z,0
2017-01-11T23:13:52.737Z,0
2017-01-11T23:14:09.455Z,0
2017-01-11T23:14:26.167Z,0
2017-01-11T23:14:42.888Z,0
2017-01-11T23:14:59.602Z,0
2017-01-11T23:15:17.333Z,0
2017-01-11T23:15:34.042Z,0
2017-01-11T23:15:50.759Z,0
2017-01-11T23:16:07.442Z,0
2017-01-11T23:16:24.184Z,0
2017-01-11T23:16:40.883Z,0
2017-01-11T23:16:57.598Z,0
2017-01-11T23:17:14.318Z,0
2017-01-11T23:17:31.050Z,0
2017-01-11T23:17:47.764Z,0
2017-01-11T23:18:04.476Z,0
2017-01-11T23:18:21.198Z,0
2017-01-11T23:18:37.887Z,0
2017-01-11T23:18:54.592Z,0
2017-01-11T23:19:11.342Z,0
2017-01-11T23:19:28.679Z,0
2017-01-11T23:19:45.380Z,0
2017-01-11T23:20:02.066Z,0
2017-01-11T23:20:18.794Z,0
2017-01-11T23:20:35.508Z,0
2017-01-11T23:20:52.219Z,0
2017-01-11T23:21:08.931Z,0
2017-01-11T23:21:25.607Z,0
2017-01-11T23:21:42.332Z,0
2017-01-11T23:21:59.042Z,0
2017-01-11T23:22:15.741Z,0
2017-01-11T23:22:32.463Z,0
2017-01-11T23:22:49.205Z,0
2017-01-11T23:23:06.498Z,0
2017-01-11T23:23:23.203Z,0
2017-01-11T23:23:39.917Z,0
2017-01-11T23:23:56.634Z,0
2017-01-11T23:24:13.357Z,0
2017-01-11T23:24:30.070Z,0
2017-01-11T23:24:46.809Z,0
2017-01-11T23:25:03.739Z,0
2017-01-11T23:25:20.461Z,0
2017-01-11T23:25:37.168Z,0
2017-01-11T23:25:53.888Z,0
2017-01-11T23:26:10.606Z,0
2017-01-11T23:26:27.347Z,0
2017-01-11T23:26:44.039Z,0
2017-01-11T23:27:00.773Z,0
2017-01-11T23:27:18.059Z,0
2017-01-11T23:27:34.744Z,0
2017-01-11T23:27:51.482Z,0
2017-01-11T23:28:08.217Z,0
2017-01-11T23:28:24.930Z,0
2017-01-11T23:28:41.645Z,0
2017-01-11T23:28:58.365Z,0
2017-01-11T23:29:15.080Z,0
2017-01-11T23:29:31.813Z,0
2017-01-11T23:29:48.503Z,0
2017-01-11T23:30:05.214Z,0
2017-01-11T23:30:21.958Z,0
2017-01-11T23:30:38.664Z,4
2017-01-11T23:30:55.968Z,4
2017-01-11T23:31:12.681Z,0
2017-01-11T23:31:29.385Z,4
2017-01-11T23:31:46.100Z,4
2017-01-11T23:32:02.777Z,4
2017-01-11T23:32:19.499Z,4
2017-01-11T23:32:36.257Z,4
2017-01-11T23:32:52.982Z,4
2017-01-11T23:33:09.689Z,4
2017-01-11T23:33:26.422Z,4
2017-01-11T23:33:43.168Z,0
2017-01-11T23:33:59.894Z,4
2017-01-11T23:34:17.814Z,0
2017-01-11T23:34:34.527Z,0
2017-01-11T23:34:51.228Z,0
2017-01-11T23:35:22.433Z,0
2017-01-11T23:35:39.178Z,0
2017-01-11T23:35:55.893Z,0
2017-01-11T23:36:12.607Z,4
2017-01-11T23:36:29.314Z,4
2017-01-11T23:36:46.049Z,0
2017-01-11T23:37:02.844Z,0
2017-01-11T23:37:19.584Z,0
2017-01-11T23:37:36.342Z,0
2017-01-11T23:37:53.030Z,0
2017-01-11T23:38:09.743Z,0
2017-01-11T23:38:26.460Z,0
2017-01-11T23:38:43.203Z,0
2017-01-11T23:38:59.909Z,0
2017-01-11T23:39:16.633Z,0
2017-01-11T23:39:33.356Z,0
2017-01-11T23:39:50.085Z,0
2017-01-11T23:40:07.401Z,0
2017-01-11T23:40:24.098Z,0
2017-01-11T23:40:40.786Z,0
2017-01-11T23:40:57.599Z,0
2017-01-11T23:41:14.316Z,0
2017-01-11T23:41:31.032Z,0
2017-01-11T23:41:47.747Z,0
2017-01-11T23:42:04.452Z,0
2017-01-11T23:42:21.175Z,0
2017-01-11T23:42:37.880Z,0
2017-01-11T23:42:54.583Z,0
2017-01-11T23:43:11.312Z,0
2017-01-11T23:43:28.036Z,0
2017-01-11T23:43:44.742Z,0
2017-01-11T23:44:01.455Z,0
2017-01-11T23:44:18.166Z,0
2017-01-11T23:44:34.941Z,0
2017-01-11T23:44:51.686Z,0
2017-01-11T23:45:09.273Z,0
2017-01-11T23:45:25.996Z,0
2017-01-11T23:45:42.682Z,0
2017-01-11T23:45:59.380Z,0
2017-01-11T23:46:16.085Z,0
2017-01-11T23:46:32.820Z,0
2017-01-11T23:46:49.544Z,0
2017-01-11T23:47:06.257Z,0
2017-01-11T23:47:22.971Z,0
2017-01-11T23:47:39.663Z,0
2017-01-11T23:47:56.381Z,0
2017-01-11T23:48:13.180Z,0
2017-01-11T23:48:29.995Z,0
2017-01-11T23:48:46.718Z,0
2017-01-11T23:49:03.514Z,0
2017-01-11T23:49:20.212Z,0
2017-01-11T23:49:36.975Z,0
2017-01-11T23:49:53.705Z,0
2017-01-11T23:50:24.902Z,0
2017-01-11T23:50:41.625Z,0
2017-01-11T23:50:58.424Z,0
2017-01-11T23:51:15.129Z,0
2017-01-11T23:51:31.850Z,0
2017-01-11T23:51:48.600Z,0
2017-01-11T23:52:05.343Z,0
2017-01-11T23:52:22.109Z,0
2017-01-11T23:52:39.056Z,0
2017-01-11T23:52:55.772Z,0
2017-01-11T23:53:12.565Z,0
2017-01-11T23:53:29.289Z,0
2017-01-11T23:53:45.983Z,0
2017-01-11T23:54:02.744Z,0
2017-01-11T23:54:19.474Z,0
2017-01-11T23:54:36.198Z,0
2017-01-11T23:54:52.921Z,0
2017-01-11T23:55:09.631Z,0
2017-01-11T23:55:26.581Z,0
2017-01-11T23:55:43.316Z,0
2017-01-11T23:56:00.015Z,0
2017-01-11T23:56:16.715Z,0
2017-01-11T23:56:33.437Z,0
2017-01-11T23:56:50.120Z,0
2017-01-11T23:57:06.836Z,0
2017-01-11T23:57:23.568Z,0
2017-01-11T23:57:40.311Z,0
2017-01-11T23:57:57.027Z,0
2017-01-11T23:58:13.747Z,0
2017-01-11T23:58:30.465Z,0
2017-01-11T23:58:47.174Z,0
2017-01-11T23:59:03.872Z,0
2017-01-11T23:59:20.570Z,0
2017-01-11T23:59:37.270Z,0
2017-01-11T23:59:53.975Z,0
